sensor_id;sensor_type;location;lat;lon;timestamp;temperature;humidity
55203;DHT22;41077;52.956;6.796;2023-04-06T00:01:37;3.00;99.90
55203;DHT22;41077;52.956;6.796;2023-04-06T00:04:03;3.00;99.90
55203;DHT22;41077;52.956;6.796;2023-04-06T00:06:29;3.00;99.90
55203;DHT22;41077;52.956;6.796;2023-04-06T00:08:55;3.00;99.90
55203;DHT22;41077;52.956;6.796;2023-04-06T00:11:21;3.00;99.90
55203;DHT22;41077;52.956;6.796;2023-04-06T00:13:47;3.00;99.90
55203;DHT22;41077;52.956;6.796;2023-04-06T00:16:13;3.00;99.90
55203;DHT22;41077;52.956;6.796;2023-04-06T00:18:39;2.90;99.90
55203;DHT22;41077;52.956;6.796;2023-04-06T00:21:05;2.90;99.90
55203;DHT22;41077;52.956;6.796;2023-04-06T00:23:31;2.90;99.90
55203;DHT22;41077;52.956;6.796;2023-04-06T00:25:56;2.80;99.90
55203;DHT22;41077;52.956;6.796;2023-04-06T00:28:22;2.80;99.90
55203;DHT22;41077;52.956;6.796;2023-04-06T00:30:51;2.80;99.90
55203;DHT22;41077;52.956;6.796;2023-04-06T00:33:18;2.80;99.90
55203;DHT22;41077;52.956;6.796;2023-04-06T00:35:44;2.80;99.90
55203;DHT22;41077;52.956;6.796;2023-04-06T00:38:11;2.80;99.90
55203;DHT22;41077;52.956;6.796;2023-04-06T00:40:36;2.70;99.90
55203;DHT22;41077;52.956;6.796;2023-04-06T00:43:02;2.70;99.90
55203;DHT22;41077;52.956;6.796;2023-04-06T00:45:28;2.70;99.90
55203;DHT22;41077;52.956;6.796;2023-04-06T00:47:54;2.60;99.90
55203;DHT22;41077;52.956;6.796;2023-04-06T00:50:19;2.50;99.90
55203;DHT22;41077;52.956;6.796;2023-04-06T00:52:46;2.50;99.90
55203;DHT22;41077;52.956;6.796;2023-04-06T00:55:11;2.40;99.90
55203;DHT22;41077;52.956;6.796;2023-04-06T00:57:37;2.40;99.90
55203;DHT22;41077;52.956;6.796;2023-04-06T01:00:03;2.30;99.90
55203;DHT22;41077;52.956;6.796;2023-04-06T01:02:29;2.30;99.90
55203;DHT22;41077;52.956;6.796;2023-04-06T01:04:55;2.20;99.90
55203;DHT22;41077;52.956;6.796;2023-04-06T01:07:21;2.20;99.90
55203;DHT22;41077;52.956;6.796;2023-04-06T01:09:47;2.20;99.90
55203;DHT22;41077;52.956;6.796;2023-04-06T01:12:13;2.10;99.90
55203;DHT22;41077;52.956;6.796;2023-04-06T01:14:38;2.10;99.90
55203;DHT22;41077;52.956;6.796;2023-04-06T01:17:04;2.10;99.90
55203;DHT22;41077;52.956;6.796;2023-04-06T01:19:30;2.00;99.90
55203;DHT22;41077;52.956;6.796;2023-04-06T01:21:56;2.00;99.90
55203;DHT22;41077;52.956;6.796;2023-04-06T01:24:22;2.00;99.90
55203;DHT22;41077;52.956;6.796;2023-04-06T01:26:47;1.90;99.90
55203;DHT22;41077;52.956;6.796;2023-04-06T01:29:13;1.90;99.90
55203;DHT22;41077;52.956;6.796;2023-04-06T01:31:39;1.90;99.90
55203;DHT22;41077;52.956;6.796;2023-04-06T01:34:05;1.80;99.90
55203;DHT22;41077;52.956;6.796;2023-04-06T01:36:32;1.80;99.90
55203;DHT22;41077;52.956;6.796;2023-04-06T01:38:57;1.80;99.90
55203;DHT22;41077;52.956;6.796;2023-04-06T01:41:23;1.70;99.90
55203;DHT22;41077;52.956;6.796;2023-04-06T01:43:49;1.70;99.90
55203;DHT22;41077;52.956;6.796;2023-04-06T01:46:15;1.70;99.90
55203;DHT22;41077;52.956;6.796;2023-04-06T01:48:41;1.70;99.90
55203;DHT22;41077;52.956;6.796;2023-04-06T01:51:07;1.60;99.90
55203;DHT22;41077;52.956;6.796;2023-04-06T01:53:33;1.60;99.90
55203;DHT22;41077;52.956;6.796;2023-04-06T01:55:59;1.60;99.90
55203;DHT22;41077;52.956;6.796;2023-04-06T01:58:24;1.60;99.90
55203;DHT22;41077;52.956;6.796;2023-04-06T02:00:50;1.60;99.90
55203;DHT22;41077;52.956;6.796;2023-04-06T02:03:16;1.50;99.90
55203;DHT22;41077;52.956;6.796;2023-04-06T02:05:42;1.50;99.90
55203;DHT22;41077;52.956;6.796;2023-04-06T02:08:08;1.50;99.90
55203;DHT22;41077;52.956;6.796;2023-04-06T02:10:34;1.40;99.90
55203;DHT22;41077;52.956;6.796;2023-04-06T02:13:00;1.50;99.90
55203;DHT22;41077;52.956;6.796;2023-04-06T02:15:26;1.40;99.90
55203;DHT22;41077;52.956;6.796;2023-04-06T02:17:52;1.40;99.90
55203;DHT22;41077;52.956;6.796;2023-04-06T02:20:18;1.40;99.90
55203;DHT22;41077;52.956;6.796;2023-04-06T02:22:44;1.40;99.90
55203;DHT22;41077;52.956;6.796;2023-04-06T02:25:10;1.40;99.90
55203;DHT22;41077;52.956;6.796;2023-04-06T02:27:36;1.30;99.90
55203;DHT22;41077;52.956;6.796;2023-04-06T02:30:05;1.40;99.90
55203;DHT22;41077;52.956;6.796;2023-04-06T02:32:31;1.30;99.90
55203;DHT22;41077;52.956;6.796;2023-04-06T02:34:57;1.30;99.90
55203;DHT22;41077;52.956;6.796;2023-04-06T02:37:22;1.30;99.90
55203;DHT22;41077;52.956;6.796;2023-04-06T02:39:49;1.20;99.90
55203;DHT22;41077;52.956;6.796;2023-04-06T02:42:15;1.20;99.90
55203;DHT22;41077;52.956;6.796;2023-04-06T02:44:44;1.30;99.90
55203;DHT22;41077;52.956;6.796;2023-04-06T02:47:10;1.20;99.90
55203;DHT22;41077;52.956;6.796;2023-04-06T02:49:36;1.20;99.90
55203;DHT22;41077;52.956;6.796;2023-04-06T02:52:02;1.20;99.90
55203;DHT22;41077;52.956;6.796;2023-04-06T02:54:28;1.20;99.90
55203;DHT22;41077;52.956;6.796;2023-04-06T02:56:54;1.20;99.90
55203;DHT22;41077;52.956;6.796;2023-04-06T02:59:20;1.20;99.90
55203;DHT22;41077;52.956;6.796;2023-04-06T03:01:45;1.20;99.90
55203;DHT22;41077;52.956;6.796;2023-04-06T03:04:11;1.20;99.90
55203;DHT22;41077;52.956;6.796;2023-04-06T03:06:37;1.20;99.90
55203;DHT22;41077;52.956;6.796;2023-04-06T03:09:03;1.20;99.90
55203;DHT22;41077;52.956;6.796;2023-04-06T03:11:29;1.20;99.90
55203;DHT22;41077;52.956;6.796;2023-04-06T03:13:55;1.20;99.90
55203;DHT22;41077;52.956;6.796;2023-04-06T03:16:20;1.10;99.90
55203;DHT22;41077;52.956;6.796;2023-04-06T03:18:46;1.10;99.90
55203;DHT22;41077;52.956;6.796;2023-04-06T03:21:13;1.10;99.90
55203;DHT22;41077;52.956;6.796;2023-04-06T03:23:41;1.10;99.90
55203;DHT22;41077;52.956;6.796;2023-04-06T03:26:06;1.10;99.90
55203;DHT22;41077;52.956;6.796;2023-04-06T03:28:32;1.20;99.90
55203;DHT22;41077;52.956;6.796;2023-04-06T03:30:58;1.20;99.90
55203;DHT22;41077;52.956;6.796;2023-04-06T03:33:24;1.10;99.90
55203;DHT22;41077;52.956;6.796;2023-04-06T03:35:53;1.10;99.90
55203;DHT22;41077;52.956;6.796;2023-04-06T03:38:19;1.10;99.90
55203;DHT22;41077;52.956;6.796;2023-04-06T03:40:44;1.10;99.90
55203;DHT22;41077;52.956;6.796;2023-04-06T03:43:10;1.10;99.90
55203;DHT22;41077;52.956;6.796;2023-04-06T03:45:36;1.10;99.90
55203;DHT22;41077;52.956;6.796;2023-04-06T03:48:02;1.00;99.90
55203;DHT22;41077;52.956;6.796;2023-04-06T03:50:28;1.00;99.90
55203;DHT22;41077;52.956;6.796;2023-04-06T03:52:53;0.90;99.90
55203;DHT22;41077;52.956;6.796;2023-04-06T03:55:19;0.90;99.90
55203;DHT22;41077;52.956;6.796;2023-04-06T03:57:45;0.90;99.90
55203;DHT22;41077;52.956;6.796;2023-04-06T04:00:11;0.90;99.90
55203;DHT22;41077;52.956;6.796;2023-04-06T04:02:37;0.90;99.90
55203;DHT22;41077;52.956;6.796;2023-04-06T04:05:03;0.90;99.90
55203;DHT22;41077;52.956;6.796;2023-04-06T04:07:29;0.90;99.90
55203;DHT22;41077;52.956;6.796;2023-04-06T04:09:55;0.90;99.90
55203;DHT22;41077;52.956;6.796;2023-04-06T04:12:20;1.00;99.90
55203;DHT22;41077;52.956;6.796;2023-04-06T04:14:46;1.00;99.90
55203;DHT22;41077;52.956;6.796;2023-04-06T04:17:12;0.90;99.90
55203;DHT22;41077;52.956;6.796;2023-04-06T04:19:38;0.90;99.90
55203;DHT22;41077;52.956;6.796;2023-04-06T04:22:03;0.90;99.90
55203;DHT22;41077;52.956;6.796;2023-04-06T04:24:30;0.90;99.90
55203;DHT22;41077;52.956;6.796;2023-04-06T04:26:56;1.00;99.90
55203;DHT22;41077;52.956;6.796;2023-04-06T04:29:22;0.90;99.90
55203;DHT22;41077;52.956;6.796;2023-04-06T04:31:49;1.00;99.90
55203;DHT22;41077;52.956;6.796;2023-04-06T04:34:15;1.00;99.90
55203;DHT22;41077;52.956;6.796;2023-04-06T04:36:41;1.00;99.90
55203;DHT22;41077;52.956;6.796;2023-04-06T04:39:08;1.00;99.90
55203;DHT22;41077;52.956;6.796;2023-04-06T04:41:33;1.00;99.90
55203;DHT22;41077;52.956;6.796;2023-04-06T04:43:59;1.00;99.90
55203;DHT22;41077;52.956;6.796;2023-04-06T04:46:25;0.90;99.90
55203;DHT22;41077;52.956;6.796;2023-04-06T04:48:51;0.90;99.90
55203;DHT22;41077;52.956;6.796;2023-04-06T04:51:16;0.90;99.90
55203;DHT22;41077;52.956;6.796;2023-04-06T04:53:42;0.80;99.90
55203;DHT22;41077;52.956;6.796;2023-04-06T04:56:08;0.90;99.90
55203;DHT22;41077;52.956;6.796;2023-04-06T04:58:33;0.90;99.90
55203;DHT22;41077;52.956;6.796;2023-04-06T05:00:59;0.90;99.90
55203;DHT22;41077;52.956;6.796;2023-04-06T05:03:26;0.90;99.90
55203;DHT22;41077;52.956;6.796;2023-04-06T05:05:52;0.90;99.90
55203;DHT22;41077;52.956;6.796;2023-04-06T05:08:18;0.90;99.90
55203;DHT22;41077;52.956;6.796;2023-04-06T05:10:44;0.90;99.90
55203;DHT22;41077;52.956;6.796;2023-04-06T05:13:10;0.90;99.90
55203;DHT22;41077;52.956;6.796;2023-04-06T05:15:36;1.00;99.90
55203;DHT22;41077;52.956;6.796;2023-04-06T05:18:06;1.00;99.90
55203;DHT22;41077;52.956;6.796;2023-04-06T05:20:32;1.00;99.90
55203;DHT22;41077;52.956;6.796;2023-04-06T05:22:58;1.00;99.90
55203;DHT22;41077;52.956;6.796;2023-04-06T05:25:24;1.10;99.90
55203;DHT22;41077;52.956;6.796;2023-04-06T05:27:50;1.00;99.90
55203;DHT22;41077;52.956;6.796;2023-04-06T05:30:16;1.10;99.90
55203;DHT22;41077;52.956;6.796;2023-04-06T05:32:42;1.10;99.90
55203;DHT22;41077;52.956;6.796;2023-04-06T05:35:10;1.20;99.90
55203;DHT22;41077;52.956;6.796;2023-04-06T05:37:36;1.20;99.90
55203;DHT22;41077;52.956;6.796;2023-04-06T05:40:02;1.20;99.90
55203;DHT22;41077;52.956;6.796;2023-04-06T05:42:28;1.20;99.90
55203;DHT22;41077;52.956;6.796;2023-04-06T05:45:02;1.30;99.90
55203;DHT22;41077;52.956;6.796;2023-04-06T05:47:27;1.30;99.90
55203;DHT22;41077;52.956;6.796;2023-04-06T05:49:53;1.30;99.90
55203;DHT22;41077;52.956;6.796;2023-04-06T05:52:19;1.40;99.90
55203;DHT22;41077;52.956;6.796;2023-04-06T05:54:44;1.40;99.90
55203;DHT22;41077;52.956;6.796;2023-04-06T05:57:10;1.40;99.90
55203;DHT22;41077;52.956;6.796;2023-04-06T05:59:36;1.50;99.90
55203;DHT22;41077;52.956;6.796;2023-04-06T06:02:02;1.50;99.90
55203;DHT22;41077;52.956;6.796;2023-04-06T06:04:28;1.60;99.90
55203;DHT22;41077;52.956;6.796;2023-04-06T06:06:53;1.70;99.90
55203;DHT22;41077;52.956;6.796;2023-04-06T06:09:19;1.80;99.90
55203;DHT22;41077;52.956;6.796;2023-04-06T06:11:44;1.80;99.90
55203;DHT22;41077;52.956;6.796;2023-04-06T06:14:10;1.80;99.90
55203;DHT22;41077;52.956;6.796;2023-04-06T06:16:36;1.90;99.90
55203;DHT22;41077;52.956;6.796;2023-04-06T06:19:02;1.90;99.90
55203;DHT22;41077;52.956;6.796;2023-04-06T06:21:27;2.00;99.90
55203;DHT22;41077;52.956;6.796;2023-04-06T06:23:53;2.00;99.90
55203;DHT22;41077;52.956;6.796;2023-04-06T06:26:20;2.00;99.90
55203;DHT22;41077;52.956;6.796;2023-04-06T06:28:45;2.10;99.90
55203;DHT22;41077;52.956;6.796;2023-04-06T06:31:11;2.20;99.90
55203;DHT22;41077;52.956;6.796;2023-04-06T06:33:37;2.30;99.90
55203;DHT22;41077;52.956;6.796;2023-04-06T06:36:03;2.40;99.90
55203;DHT22;41077;52.956;6.796;2023-04-06T06:38:29;2.40;99.90
55203;DHT22;41077;52.956;6.796;2023-04-06T06:40:54;2.50;99.90
55203;DHT22;41077;52.956;6.796;2023-04-06T06:43:20;2.60;99.90
55203;DHT22;41077;52.956;6.796;2023-04-06T06:45:46;2.60;99.90
55203;DHT22;41077;52.956;6.796;2023-04-06T06:48:12;2.70;99.90
55203;DHT22;41077;52.956;6.796;2023-04-06T06:50:38;2.70;99.90
55203;DHT22;41077;52.956;6.796;2023-04-06T06:53:03;2.80;99.90
55203;DHT22;41077;52.956;6.796;2023-04-06T06:55:29;2.90;99.90
55203;DHT22;41077;52.956;6.796;2023-04-06T06:57:55;3.00;99.90
55203;DHT22;41077;52.956;6.796;2023-04-06T07:00:21;3.00;99.90
55203;DHT22;41077;52.956;6.796;2023-04-06T07:02:47;3.10;99.90
55203;DHT22;41077;52.956;6.796;2023-04-06T07:05:13;3.10;99.90
55203;DHT22;41077;52.956;6.796;2023-04-06T07:07:39;3.20;99.90
55203;DHT22;41077;52.956;6.796;2023-04-06T07:10:06;3.30;99.90
55203;DHT22;41077;52.956;6.796;2023-04-06T07:12:31;3.40;99.90
55203;DHT22;41077;52.956;6.796;2023-04-06T07:14:57;3.50;99.90
55203;DHT22;41077;52.956;6.796;2023-04-06T07:17:23;3.50;99.90
55203;DHT22;41077;52.956;6.796;2023-04-06T07:19:48;3.70;99.90
55203;DHT22;41077;52.956;6.796;2023-04-06T07:22:14;3.80;99.90
55203;DHT22;41077;52.956;6.796;2023-04-06T07:24:40;3.80;99.90
55203;DHT22;41077;52.956;6.796;2023-04-06T07:27:06;3.90;99.90
55203;DHT22;41077;52.956;6.796;2023-04-06T07:29:32;4.00;99.90
55203;DHT22;41077;52.956;6.796;2023-04-06T07:31:58;4.10;99.90
55203;DHT22;41077;52.956;6.796;2023-04-06T07:34:24;4.20;99.90
55203;DHT22;41077;52.956;6.796;2023-04-06T07:36:49;4.20;99.90
55203;DHT22;41077;52.956;6.796;2023-04-06T07:39:15;4.30;99.90
55203;DHT22;41077;52.956;6.796;2023-04-06T07:41:41;4.40;99.90
55203;DHT22;41077;52.956;6.796;2023-04-06T07:44:07;4.50;99.90
55203;DHT22;41077;52.956;6.796;2023-04-06T07:46:32;4.70;99.90
55203;DHT22;41077;52.956;6.796;2023-04-06T07:48:59;4.80;99.90
55203;DHT22;41077;52.956;6.796;2023-04-06T07:51:26;5.00;99.90
55203;DHT22;41077;52.956;6.796;2023-04-06T07:53:52;5.00;99.90
55203;DHT22;41077;52.956;6.796;2023-04-06T07:56:18;5.20;99.90
55203;DHT22;41077;52.956;6.796;2023-04-06T07:58:44;5.20;99.90
55203;DHT22;41077;52.956;6.796;2023-04-06T08:01:09;5.40;99.90
55203;DHT22;41077;52.956;6.796;2023-04-06T08:03:36;5.50;99.90
55203;DHT22;41077;52.956;6.796;2023-04-06T08:06:02;5.60;99.90
55203;DHT22;41077;52.956;6.796;2023-04-06T08:08:28;5.70;99.90
55203;DHT22;41077;52.956;6.796;2023-04-06T08:10:54;5.80;99.90
55203;DHT22;41077;52.956;6.796;2023-04-06T08:13:20;5.90;99.90
55203;DHT22;41077;52.956;6.796;2023-04-06T08:15:46;6.00;99.90
55203;DHT22;41077;52.956;6.796;2023-04-06T08:18:12;6.10;99.90
55203;DHT22;41077;52.956;6.796;2023-04-06T08:20:39;6.30;99.90
55203;DHT22;41077;52.956;6.796;2023-04-06T08:23:05;6.40;99.90
55203;DHT22;41077;52.956;6.796;2023-04-06T08:25:33;6.60;99.90
55203;DHT22;41077;52.956;6.796;2023-04-06T08:27:59;6.60;99.90
55203;DHT22;41077;52.956;6.796;2023-04-06T08:30:25;6.70;99.90
55203;DHT22;41077;52.956;6.796;2023-04-06T08:32:50;6.80;99.90
55203;DHT22;41077;52.956;6.796;2023-04-06T08:35:16;6.90;99.90
55203;DHT22;41077;52.956;6.796;2023-04-06T08:37:42;7.00;99.90
55203;DHT22;41077;52.956;6.796;2023-04-06T08:40:08;7.10;99.90
55203;DHT22;41077;52.956;6.796;2023-04-06T08:42:39;7.20;99.90
55203;DHT22;41077;52.956;6.796;2023-04-06T08:45:06;7.40;99.90
55203;DHT22;41077;52.956;6.796;2023-04-06T08:47:32;7.50;99.90
55203;DHT22;41077;52.956;6.796;2023-04-06T08:50:04;7.70;99.90
55203;DHT22;41077;52.956;6.796;2023-04-06T08:52:32;7.80;99.90
55203;DHT22;41077;52.956;6.796;2023-04-06T08:54:58;8.10;99.90
55203;DHT22;41077;52.956;6.796;2023-04-06T08:57:24;8.30;99.90
55203;DHT22;41077;52.956;6.796;2023-04-06T08:59:51;8.40;99.90
55203;DHT22;41077;52.956;6.796;2023-04-06T09:02:18;8.50;99.90
55203;DHT22;41077;52.956;6.796;2023-04-06T09:04:47;8.70;99.90
55203;DHT22;41077;52.956;6.796;2023-04-06T09:07:14;8.90;99.90
55203;DHT22;41077;52.956;6.796;2023-04-06T09:09:40;9.00;99.90
55203;DHT22;41077;52.956;6.796;2023-04-06T09:12:26;9.10;99.90
55203;DHT22;41077;52.956;6.796;2023-04-06T09:14:52;9.20;99.90
55203;DHT22;41077;52.956;6.796;2023-04-06T09:17:25;9.30;99.90
55203;DHT22;41077;52.956;6.796;2023-04-06T09:19:52;9.50;99.90
55203;DHT22;41077;52.956;6.796;2023-04-06T09:22:18;9.50;99.90
55203;DHT22;41077;52.956;6.796;2023-04-06T09:24:46;9.60;99.90
55203;DHT22;41077;52.956;6.796;2023-04-06T09:27:12;9.80;99.90
55203;DHT22;41077;52.956;6.796;2023-04-06T09:29:38;10.00;99.90
55203;DHT22;41077;52.956;6.796;2023-04-06T09:32:05;10.20;99.90
55203;DHT22;41077;52.956;6.796;2023-04-06T09:34:31;10.50;99.90
55203;DHT22;41077;52.956;6.796;2023-04-06T09:36:57;10.50;99.90
55203;DHT22;41077;52.956;6.796;2023-04-06T09:39:24;10.60;99.90
55203;DHT22;41077;52.956;6.796;2023-04-06T09:41:53;10.80;99.90
55203;DHT22;41077;52.956;6.796;2023-04-06T09:44:19;11.00;99.90
55203;DHT22;41077;52.956;6.796;2023-04-06T09:46:46;11.00;99.90
55203;DHT22;41077;52.956;6.796;2023-04-06T09:49:13;11.00;99.90
55203;DHT22;41077;52.956;6.796;2023-04-06T09:51:49;10.90;99.90
55203;DHT22;41077;52.956;6.796;2023-04-06T09:54:20;11.10;99.90
55203;DHT22;41077;52.956;6.796;2023-04-06T09:56:58;11.10;99.90
55203;DHT22;41077;52.956;6.796;2023-04-06T10:02:24;11.30;98.90
55203;DHT22;41077;52.956;6.796;2023-04-06T10:05:35;11.60;97.00
55203;DHT22;41077;52.956;6.796;2023-04-06T10:08:06;11.70;94.20
55203;DHT22;41077;52.956;6.796;2023-04-06T10:10:33;11.70;92.90
55203;DHT22;41077;52.956;6.796;2023-04-06T10:13:00;11.60;92.60
55203;DHT22;41077;52.956;6.796;2023-04-06T10:15:28;11.60;92.80
55203;DHT22;41077;52.956;6.796;2023-04-06T10:17:55;11.60;92.70
55203;DHT22;41077;52.956;6.796;2023-04-06T10:20:26;11.70;92.20
55203;DHT22;41077;52.956;6.796;2023-04-06T10:23:06;11.70;91.80
55203;DHT22;41077;52.956;6.796;2023-04-06T10:25:33;11.80;91.70
55203;DHT22;41077;52.956;6.796;2023-04-06T10:28:07;11.90;91.20
55203;DHT22;41077;52.956;6.796;2023-04-06T10:30:41;11.90;91.40
55203;DHT22;41077;52.956;6.796;2023-04-06T10:33:15;12.00;92.60
55203;DHT22;41077;52.956;6.796;2023-04-06T10:35:40;12.10;92.50
55203;DHT22;41077;52.956;6.796;2023-04-06T10:38:06;12.40;92.40
55203;DHT22;41077;52.956;6.796;2023-04-06T10:40:36;12.60;90.60
55203;DHT22;41077;52.956;6.796;2023-04-06T10:43:09;12.70;90.20
55203;DHT22;41077;52.956;6.796;2023-04-06T10:45:36;12.80;88.30
55203;DHT22;41077;52.956;6.796;2023-04-06T10:48:13;12.70;88.60
55203;DHT22;41077;52.956;6.796;2023-04-06T10:50:39;12.70;90.00
55203;DHT22;41077;52.956;6.796;2023-04-06T10:53:05;12.80;88.50
55203;DHT22;41077;52.956;6.796;2023-04-06T10:55:32;12.80;86.40
55203;DHT22;41077;52.956;6.796;2023-04-06T10:57:57;12.70;88.10
55203;DHT22;41077;52.956;6.796;2023-04-06T11:00:23;12.70;90.10
55203;DHT22;41077;52.956;6.796;2023-04-06T11:02:50;12.80;87.30
55203;DHT22;41077;52.956;6.796;2023-04-06T11:05:15;12.90;88.00
55203;DHT22;41077;52.956;6.796;2023-04-06T11:07:41;13.10;87.40
55203;DHT22;41077;52.956;6.796;2023-04-06T11:10:08;13.10;86.90
55203;DHT22;41077;52.956;6.796;2023-04-06T11:12:34;13.20;87.80
55203;DHT22;41077;52.956;6.796;2023-04-06T11:15:02;13.30;85.50
55203;DHT22;41077;52.956;6.796;2023-04-06T11:17:36;13.20;87.00
55203;DHT22;41077;52.956;6.796;2023-04-06T11:20:03;13.40;86.70
55203;DHT22;41077;52.956;6.796;2023-04-06T11:22:30;13.60;86.50
55203;DHT22;41077;52.956;6.796;2023-04-06T11:25:06;13.80;85.40
55203;DHT22;41077;52.956;6.796;2023-04-06T11:27:33;14.00;84.10
55203;DHT22;41077;52.956;6.796;2023-04-06T11:30:01;14.20;82.20
55203;DHT22;41077;52.956;6.796;2023-04-06T11:32:27;14.30;82.90
55203;DHT22;41077;52.956;6.796;2023-04-06T11:34:53;14.40;81.30
55203;DHT22;41077;52.956;6.796;2023-04-06T11:37:18;14.40;79.20
55203;DHT22;41077;52.956;6.796;2023-04-06T11:39:53;14.30;78.80
55203;DHT22;41077;52.956;6.796;2023-04-06T11:42:27;14.30;80.10
55203;DHT22;41077;52.956;6.796;2023-04-06T11:44:59;14.20;79.50
55203;DHT22;41077;52.956;6.796;2023-04-06T11:47:31;14.20;80.20
55203;DHT22;41077;52.956;6.796;2023-04-06T11:50:06;14.30;78.70
55203;DHT22;41077;52.956;6.796;2023-04-06T11:52:32;14.40;79.70
55203;DHT22;41077;52.956;6.796;2023-04-06T11:54:58;14.50;80.50
55203;DHT22;41077;52.956;6.796;2023-04-06T11:57:24;14.80;75.30
55203;DHT22;41077;52.956;6.796;2023-04-06T11:59:51;14.80;76.30
55203;DHT22;41077;52.956;6.796;2023-04-06T12:02:17;14.60;76.70
55203;DHT22;41077;52.956;6.796;2023-04-06T12:04:43;14.50;76.10
55203;DHT22;41077;52.956;6.796;2023-04-06T12:07:09;14.40;76.50
55203;DHT22;41077;52.956;6.796;2023-04-06T12:09:35;14.30;78.10
55203;DHT22;41077;52.956;6.796;2023-04-06T12:12:02;14.30;78.50
55203;DHT22;41077;52.956;6.796;2023-04-06T12:14:29;14.30;77.10
55203;DHT22;41077;52.956;6.796;2023-04-06T12:16:57;14.20;77.80
55203;DHT22;41077;52.956;6.796;2023-04-06T12:19:23;14.10;77.40
55203;DHT22;41077;52.956;6.796;2023-04-06T12:21:52;14.00;75.90
55203;DHT22;41077;52.956;6.796;2023-04-06T12:24:18;13.90;78.50
55203;DHT22;41077;52.956;6.796;2023-04-06T12:26:44;13.90;77.00
55203;DHT22;41077;52.956;6.796;2023-04-06T12:29:09;13.80;76.30
55203;DHT22;41077;52.956;6.796;2023-04-06T12:31:36;13.80;76.40
55203;DHT22;41077;52.956;6.796;2023-04-06T12:34:02;13.70;77.30
55203;DHT22;41077;52.956;6.796;2023-04-06T12:36:29;13.90;77.90
55203;DHT22;41077;52.956;6.796;2023-04-06T12:38:55;14.10;77.20
55203;DHT22;41077;52.956;6.796;2023-04-06T12:41:20;14.00;75.20
55203;DHT22;41077;52.956;6.796;2023-04-06T12:43:46;14.10;75.20
55203;DHT22;41077;52.956;6.796;2023-04-06T12:46:13;14.00;75.70
55203;DHT22;41077;52.956;6.796;2023-04-06T12:48:39;13.90;76.00
55203;DHT22;41077;52.956;6.796;2023-04-06T12:51:06;13.90;76.50
55203;DHT22;41077;52.956;6.796;2023-04-06T12:53:32;14.00;75.80
55203;DHT22;41077;52.956;6.796;2023-04-06T12:55:58;13.90;73.50
55203;DHT22;41077;52.956;6.796;2023-04-06T12:58:25;13.90;72.90
55203;DHT22;41077;52.956;6.796;2023-04-06T13:00:52;13.70;74.10
55203;DHT22;41077;52.956;6.796;2023-04-06T13:03:21;13.70;74.40
55203;DHT22;41077;52.956;6.796;2023-04-06T13:05:49;13.70;74.30
55203;DHT22;41077;52.956;6.796;2023-04-06T13:08:15;13.70;73.60
55203;DHT22;41077;52.956;6.796;2023-04-06T13:10:47;13.60;75.40
55203;DHT22;41077;52.956;6.796;2023-04-06T13:13:17;13.60;75.60
55203;DHT22;41077;52.956;6.796;2023-04-06T13:15:43;13.70;74.50
55203;DHT22;41077;52.956;6.796;2023-04-06T13:18:10;13.70;75.20
55203;DHT22;41077;52.956;6.796;2023-04-06T13:20:36;13.70;75.30
55203;DHT22;41077;52.956;6.796;2023-04-06T13:23:02;13.80;75.20
55203;DHT22;41077;52.956;6.796;2023-04-06T13:25:28;13.80;75.10
55203;DHT22;41077;52.956;6.796;2023-04-06T13:27:54;13.80;74.40
55203;DHT22;41077;52.956;6.796;2023-04-06T13:30:20;13.70;74.60
55203;DHT22;41077;52.956;6.796;2023-04-06T13:32:46;13.80;74.80
55203;DHT22;41077;52.956;6.796;2023-04-06T13:35:12;13.80;74.00
55203;DHT22;41077;52.956;6.796;2023-04-06T13:37:38;13.90;74.20
55203;DHT22;41077;52.956;6.796;2023-04-06T13:40:05;13.90;72.30
55203;DHT22;41077;52.956;6.796;2023-04-06T13:42:31;13.80;72.80
55203;DHT22;41077;52.956;6.796;2023-04-06T13:44:58;13.70;75.20
55203;DHT22;41077;52.956;6.796;2023-04-06T13:47:24;13.70;74.70
55203;DHT22;41077;52.956;6.796;2023-04-06T13:49:50;13.70;74.60
55203;DHT22;41077;52.956;6.796;2023-04-06T13:52:20;13.70;73.10
55203;DHT22;41077;52.956;6.796;2023-04-06T13:54:46;13.70;74.50
55203;DHT22;41077;52.956;6.796;2023-04-06T13:57:12;13.60;75.30
55203;DHT22;41077;52.956;6.796;2023-04-06T13:59:38;13.60;75.80
55203;DHT22;41077;52.956;6.796;2023-04-06T14:02:06;13.60;77.10
55203;DHT22;41077;52.956;6.796;2023-04-06T14:04:32;13.60;77.70
55203;DHT22;41077;52.956;6.796;2023-04-06T14:06:59;13.60;77.20
55203;DHT22;41077;52.956;6.796;2023-04-06T14:09:25;13.60;77.50
55203;DHT22;41077;52.956;6.796;2023-04-06T14:11:51;13.50;77.60
55203;DHT22;41077;52.956;6.796;2023-04-06T14:14:18;13.50;77.00
55203;DHT22;41077;52.956;6.796;2023-04-06T14:16:44;13.40;77.50
55203;DHT22;41077;52.956;6.796;2023-04-06T14:19:11;13.40;78.40
55203;DHT22;41077;52.956;6.796;2023-04-06T14:21:41;13.40;78.90
55203;DHT22;41077;52.956;6.796;2023-04-06T14:24:07;13.30;78.80
55203;DHT22;41077;52.956;6.796;2023-04-06T14:26:36;13.20;79.80
55203;DHT22;41077;52.956;6.796;2023-04-06T14:29:03;13.10;79.60
55203;DHT22;41077;52.956;6.796;2023-04-06T14:31:30;13.00;80.80
55203;DHT22;41077;52.956;6.796;2023-04-06T14:33:56;13.10;80.60
55203;DHT22;41077;52.956;6.796;2023-04-06T14:36:22;13.00;80.00
55203;DHT22;41077;52.956;6.796;2023-04-06T14:38:48;12.80;80.40
55203;DHT22;41077;52.956;6.796;2023-04-06T14:41:21;12.80;81.70
55203;DHT22;41077;52.956;6.796;2023-04-06T14:43:47;12.80;81.80
55203;DHT22;41077;52.956;6.796;2023-04-06T14:46:13;12.70;83.20
55203;DHT22;41077;52.956;6.796;2023-04-06T14:48:41;12.60;84.20
55203;DHT22;41077;52.956;6.796;2023-04-06T14:51:06;12.50;84.70
55203;DHT22;41077;52.956;6.796;2023-04-06T14:53:33;12.50;85.40
55203;DHT22;41077;52.956;6.796;2023-04-06T14:55:58;12.50;85.20
55203;DHT22;41077;52.956;6.796;2023-04-06T14:58:25;12.40;85.30
55203;DHT22;41077;52.956;6.796;2023-04-06T15:01:01;12.30;86.40
55203;DHT22;41077;52.956;6.796;2023-04-06T15:03:28;12.20;87.40
55203;DHT22;41077;52.956;6.796;2023-04-06T15:05:56;12.20;88.00
55203;DHT22;41077;52.956;6.796;2023-04-06T15:08:22;12.20;87.80
55203;DHT22;41077;52.956;6.796;2023-04-06T15:10:51;12.20;88.40
55203;DHT22;41077;52.956;6.796;2023-04-06T15:13:18;12.20;89.60
55203;DHT22;41077;52.956;6.796;2023-04-06T15:15:44;12.10;89.80
55203;DHT22;41077;52.956;6.796;2023-04-06T15:18:12;11.90;90.10
55203;DHT22;41077;52.956;6.796;2023-04-06T15:20:38;11.90;90.70
55203;DHT22;41077;52.956;6.796;2023-04-06T15:23:04;11.80;90.60
55203;DHT22;41077;52.956;6.796;2023-04-06T15:25:30;11.80;90.80
55203;DHT22;41077;52.956;6.796;2023-04-06T15:27:56;11.70;90.50
55203;DHT22;41077;52.956;6.796;2023-04-06T15:30:22;11.60;90.90
55203;DHT22;41077;52.956;6.796;2023-04-06T15:32:56;11.60;91.00
55203;DHT22;41077;52.956;6.796;2023-04-06T15:35:22;11.60;90.90
55203;DHT22;41077;52.956;6.796;2023-04-06T15:37:48;11.60;91.00
55203;DHT22;41077;52.956;6.796;2023-04-06T15:40:14;11.50;91.10